sensor_id;sensor_type;location;lat;lon;timestamp;P1;durP1;ratioP1;P2;durP2;ratioP2
44480;SDS011;30184;42.018;23.670;2023-05-07T00:00:08;18.23;;;10.50;;
44480;SDS011;30184;42.018;23.670;2023-05-07T00:02:38;16.48;;;9.13;;
44480;SDS011;30184;42.018;23.670;2023-05-07T00:05:08;16.35;;;10.18;;
44480;SDS011;30184;42.018;23.670;2023-05-07T00:07:37;30.42;;;17.33;;
44480;SDS011;30184;42.018;23.670;2023-05-07T00:10:07;20.60;;;11.73;;
44480;SDS011;30184;42.018;23.670;2023-05-07T00:12:37;13.73;;;8.32;;
44480;SDS011;30184;42.018;23.670;2023-05-07T00:15:08;14.38;;;8.23;;
44480;SDS011;30184;42.018;23.670;2023-05-07T00:17:38;16.77;;;9.18;;
44480;SDS011;30184;42.018;23.670;2023-05-07T00:20:08;13.57;;;7.35;;
44480;SDS011;30184;42.018;23.670;2023-05-07T00:22:37;22.63;;;11.48;;
44480;SDS011;30184;42.018;23.670;2023-05-07T00:25:07;61.47;;;25.52;;
44480;SDS011;30184;42.018;23.670;2023-05-07T00:27:37;26.15;;;12.93;;
44480;SDS011;30184;42.018;23.670;2023-05-07T00:30:08;49.22;;;23.80;;
44480;SDS011;30184;42.018;23.670;2023-05-07T00:32:38;25.15;;;13.48;;
44480;SDS011;30184;42.018;23.670;2023-05-07T00:35:08;28.15;;;16.27;;
44480;SDS011;30184;42.018;23.670;2023-05-07T00:37:37;31.90;;;17.52;;
44480;SDS011;30184;42.018;23.670;2023-05-07T00:40:07;24.90;;;13.07;;
44480;SDS011;30184;42.018;23.670;2023-05-07T00:42:37;19.27;;;12.70;;
44480;SDS011;30184;42.018;23.670;2023-05-07T00:45:08;19.45;;;10.35;;
44480;SDS011;30184;42.018;23.670;2023-05-07T00:47:38;16.35;;;9.93;;
44480;SDS011;30184;42.018;23.670;2023-05-07T00:50:08;14.63;;;8.45;;
44480;SDS011;30184;42.018;23.670;2023-05-07T00:52:41;15.13;;;8.50;;
44480;SDS011;30184;42.018;23.670;2023-05-07T00:55:11;15.15;;;9.00;;
44480;SDS011;30184;42.018;23.670;2023-05-07T00:57:41;19.75;;;8.73;;
44480;SDS011;30184;42.018;23.670;2023-05-07T01:00:12;22.48;;;12.65;;
44480;SDS011;30184;42.018;23.670;2023-05-07T01:02:42;16.38;;;9.75;;
44480;SDS011;30184;42.018;23.670;2023-05-07T01:05:11;18.40;;;10.52;;
44480;SDS011;30184;42.018;23.670;2023-05-07T01:07:43;15.13;;;8.65;;
44480;SDS011;30184;42.018;23.670;2023-05-07T01:10:12;14.40;;;9.50;;
44480;SDS011;30184;42.018;23.670;2023-05-07T01:12:42;17.20;;;9.38;;
44480;SDS011;30184;42.018;23.670;2023-05-07T01:15:14;13.88;;;8.65;;
44480;SDS011;30184;42.018;23.670;2023-05-07T01:17:44;12.52;;;9.15;;
44480;SDS011;30184;42.018;23.670;2023-05-07T01:20:23;15.35;;;10.07;;
44480;SDS011;30184;42.018;23.670;2023-05-07T01:22:56;18.80;;;9.85;;
44480;SDS011;30184;42.018;23.670;2023-05-07T01:25:26;14.10;;;8.05;;
44480;SDS011;30184;42.018;23.670;2023-05-07T01:27:58;19.42;;;10.55;;
44480;SDS011;30184;42.018;23.670;2023-05-07T01:30:32;14.27;;;9.82;;
44480;SDS011;30184;42.018;23.670;2023-05-07T01:33:06;14.25;;;9.05;;
44480;SDS011;30184;42.018;23.670;2023-05-07T01:35:39;14.32;;;8.60;;
44480;SDS011;30184;42.018;23.670;2023-05-07T01:38:13;17.50;;;7.97;;
44480;SDS011;30184;42.018;23.670;2023-05-07T01:40:43;12.98;;;8.10;;
44480;SDS011;30184;42.018;23.670;2023-05-07T01:43:13;13.68;;;7.57;;
44480;SDS011;30184;42.018;23.670;2023-05-07T01:45:43;10.57;;;7.60;;
44480;SDS011;30184;42.018;23.670;2023-05-07T01:48:13;11.88;;;8.60;;
44480;SDS011;30184;42.018;23.670;2023-05-07T01:50:44;16.95;;;8.77;;
44480;SDS011;30184;42.018;23.670;2023-05-07T01:53:15;17.30;;;8.43;;
44480;SDS011;30184;42.018;23.670;2023-05-07T01:55:44;13.40;;;7.72;;
44480;SDS011;30184;42.018;23.670;2023-05-07T01:58:15;13.75;;;8.13;;
44480;SDS011;30184;42.018;23.670;2023-05-07T02:00:44;11.85;;;7.82;;
44480;SDS011;30184;42.018;23.670;2023-05-07T02:03:13;14.68;;;7.63;;
44480;SDS011;30184;42.018;23.670;2023-05-07T02:05:51;12.90;;;7.53;;
44480;SDS011;30184;42.018;23.670;2023-05-07T02:08:41;16.15;;;8.27;;
44480;SDS011;30184;42.018;23.670;2023-05-07T02:11:11;12.93;;;9.02;;
44480;SDS011;30184;42.018;23.670;2023-05-07T02:13:41;13.73;;;8.50;;
44480;SDS011;30184;42.018;23.670;2023-05-07T02:16:10;14.25;;;8.18;;
44480;SDS011;30184;42.018;23.670;2023-05-07T02:18:41;12.52;;;8.00;;
44480;SDS011;30184;42.018;23.670;2023-05-07T02:21:10;12.18;;;8.73;;
44480;SDS011;30184;42.018;23.670;2023-05-07T02:23:41;12.65;;;8.18;;
44480;SDS011;30184;42.018;23.670;2023-05-07T02:26:10;14.18;;;8.00;;
44480;SDS011;30184;42.018;23.670;2023-05-07T02:28:39;12.77;;;8.07;;
44480;SDS011;30184;42.018;23.670;2023-05-07T02:31:08;10.50;;;7.18;;
44480;SDS011;30184;42.018;23.670;2023-05-07T02:33:38;11.30;;;6.72;;
44480;SDS011;30184;42.018;23.670;2023-05-07T02:36:09;14.20;;;8.23;;
44480;SDS011;30184;42.018;23.670;2023-05-07T02:38:47;12.75;;;7.63;;
44480;SDS011;30184;42.018;23.670;2023-05-07T02:41:16;12.82;;;7.45;;
44480;SDS011;30184;42.018;23.670;2023-05-07T02:43:46;13.68;;;7.38;;
44480;SDS011;30184;42.018;23.670;2023-05-07T02:46:15;14.32;;;8.15;;
44480;SDS011;30184;42.018;23.670;2023-05-07T02:48:48;10.82;;;8.13;;
44480;SDS011;30184;42.018;23.670;2023-05-07T02:51:19;20.85;;;11.32;;
44480;SDS011;30184;42.018;23.670;2023-05-07T02:53:52;29.58;;;14.35;;
44480;SDS011;30184;42.018;23.670;2023-05-07T02:56:21;13.60;;;7.55;;
44480;SDS011;30184;42.018;23.670;2023-05-07T02:58:50;11.27;;;6.95;;
44480;SDS011;30184;42.018;23.670;2023-05-07T03:01:22;16.20;;;8.10;;
44480;SDS011;30184;42.018;23.670;2023-05-07T03:03:58;11.43;;;7.55;;
44480;SDS011;30184;42.018;23.670;2023-05-07T03:06:27;17.45;;;11.43;;
44480;SDS011;30184;42.018;23.670;2023-05-07T03:08:57;15.68;;;8.93;;
44480;SDS011;30184;42.018;23.670;2023-05-07T03:11:26;19.40;;;9.77;;
44480;SDS011;30184;42.018;23.670;2023-05-07T03:13:56;15.20;;;9.07;;
44480;SDS011;30184;42.018;23.670;2023-05-07T03:16:25;15.88;;;8.80;;
44480;SDS011;30184;42.018;23.670;2023-05-07T03:18:54;12.38;;;7.75;;
44480;SDS011;30184;42.018;23.670;2023-05-07T03:21:23;12.05;;;8.32;;
44480;SDS011;30184;42.018;23.670;2023-05-07T03:23:53;14.35;;;8.43;;
44480;SDS011;30184;42.018;23.670;2023-05-07T03:26:24;11.48;;;8.63;;
44480;SDS011;30184;42.018;23.670;2023-05-07T03:28:54;20.80;;;8.50;;
44480;SDS011;30184;42.018;23.670;2023-05-07T03:31:24;16.40;;;9.23;;
44480;SDS011;30184;42.018;23.670;2023-05-07T03:33:54;32.40;;;17.23;;
44480;SDS011;30184;42.018;23.670;2023-05-07T03:36:25;18.63;;;10.50;;
44480;SDS011;30184;42.018;23.670;2023-05-07T03:38:56;16.73;;;10.40;;
44480;SDS011;30184;42.018;23.670;2023-05-07T03:41:35;15.95;;;10.18;;
44480;SDS011;30184;42.018;23.670;2023-05-07T03:44:04;19.92;;;10.57;;
44480;SDS011;30184;42.018;23.670;2023-05-07T03:46:33;15.85;;;9.60;;
44480;SDS011;30184;42.018;23.670;2023-05-07T03:49:03;17.75;;;11.02;;
44480;SDS011;30184;42.018;23.670;2023-05-07T03:51:32;15.98;;;10.63;;
44480;SDS011;30184;42.018;23.670;2023-05-07T03:54:05;18.52;;;8.68;;
44480;SDS011;30184;42.018;23.670;2023-05-07T03:56:36;14.98;;;10.27;;
44480;SDS011;30184;42.018;23.670;2023-05-07T03:59:05;19.85;;;10.90;;
44480;SDS011;30184;42.018;23.670;2023-05-07T04:01:34;15.98;;;8.82;;
44480;SDS011;30184;42.018;23.670;2023-05-07T04:04:04;16.48;;;9.98;;
44480;SDS011;30184;42.018;23.670;2023-05-07T04:06:35;13.35;;;8.82;;
44480;SDS011;30184;42.018;23.670;2023-05-07T04:09:04;19.02;;;10.30;;
44480;SDS011;30184;42.018;23.670;2023-05-07T04:11:36;17.48;;;11.18;;
44480;SDS011;30184;42.018;23.670;2023-05-07T04:14:09;19.95;;;11.05;;
44480;SDS011;30184;42.018;23.670;2023-05-07T04:16:38;22.20;;;11.80;;
44480;SDS011;30184;42.018;23.670;2023-05-07T04:19:08;38.03;;;19.08;;
44480;SDS011;30184;42.018;23.670;2023-05-07T04:21:38;30.60;;;15.70;;
44480;SDS011;30184;42.018;23.670;2023-05-07T04:24:08;24.67;;;15.55;;
44480;SDS011;30184;42.018;23.670;2023-05-07T04:26:39;26.83;;;17.95;;
44480;SDS011;30184;42.018;23.670;2023-05-07T04:29:09;20.23;;;11.75;;
44480;SDS011;30184;42.018;23.670;2023-05-07T04:31:38;26.58;;;16.55;;
44480;SDS011;30184;42.018;23.670;2023-05-07T04:34:08;31.73;;;19.95;;
44480;SDS011;30184;42.018;23.670;2023-05-07T04:36:38;47.67;;;26.67;;
44480;SDS011;30184;42.018;23.670;2023-05-07T04:39:11;51.75;;;32.90;;
44480;SDS011;30184;42.018;23.670;2023-05-07T04:41:45;176.38;;;78.00;;
44480;SDS011;30184;42.018;23.670;2023-05-07T04:44:14;102.72;;;51.35;;
44480;SDS011;30184;42.018;23.670;2023-05-07T04:46:45;77.32;;;43.85;;
44480;SDS011;30184;42.018;23.670;2023-05-07T04:49:14;72.00;;;42.28;;
44480;SDS011;30184;42.018;23.670;2023-05-07T04:51:44;61.10;;;33.58;;
44480;SDS011;30184;42.018;23.670;2023-05-07T04:54:16;87.32;;;52.10;;
44480;SDS011;30184;42.018;23.670;2023-05-07T04:56:47;48.22;;;36.97;;
44480;SDS011;30184;42.018;23.670;2023-05-07T04:59:16;58.50;;;36.67;;
44480;SDS011;30184;42.018;23.670;2023-05-07T05:01:45;28.10;;;18.25;;
44480;SDS011;30184;42.018;23.670;2023-05-07T05:04:14;23.85;;;13.27;;
44480;SDS011;30184;42.018;23.670;2023-05-07T05:06:43;15.57;;;9.25;;
44480;SDS011;30184;42.018;23.670;2023-05-07T05:09:13;13.27;;;10.52;;
44480;SDS011;30184;42.018;23.670;2023-05-07T05:11:43;23.48;;;17.40;;
44480;SDS011;30184;42.018;23.670;2023-05-07T05:14:14;29.02;;;23.55;;
44480;SDS011;30184;42.018;23.670;2023-05-07T05:16:43;16.45;;;12.70;;
44480;SDS011;30184;42.018;23.670;2023-05-07T05:19:13;12.27;;;8.98;;
44480;SDS011;30184;42.018;23.670;2023-05-07T05:21:44;11.32;;;7.32;;
44480;SDS011;30184;42.018;23.670;2023-05-07T05:24:13;9.15;;;6.70;;
44480;SDS011;30184;42.018;23.670;2023-05-07T05:26:42;24.73;;;14.70;;
44480;SDS011;30184;42.018;23.670;2023-05-07T05:29:12;18.30;;;12.80;;
44480;SDS011;30184;42.018;23.670;2023-05-07T05:31:43;21.52;;;12.40;;
44480;SDS011;30184;42.018;23.670;2023-05-07T05:34:13;26.17;;;13.02;;
44480;SDS011;30184;42.018;23.670;2023-05-07T05:36:43;14.98;;;9.25;;
44480;SDS011;30184;42.018;23.670;2023-05-07T05:39:14;19.38;;;10.55;;
44480;SDS011;30184;42.018;23.670;2023-05-07T05:41:43;15.57;;;9.90;;
44480;SDS011;30184;42.018;23.670;2023-05-07T05:44:13;13.13;;;7.68;;
44480;SDS011;30184;42.018;23.670;2023-05-07T05:46:44;22.02;;;11.88;;
44480;SDS011;30184;42.018;23.670;2023-05-07T05:49:14;28.00;;;16.40;;
44480;SDS011;30184;42.018;23.670;2023-05-07T05:51:43;54.60;;;28.33;;
44480;SDS011;30184;42.018;23.670;2023-05-07T05:54:13;30.65;;;17.38;;
44480;SDS011;30184;42.018;23.670;2023-05-07T05:56:43;21.00;;;17.70;;
44480;SDS011;30184;42.018;23.670;2023-05-07T05:59:13;27.98;;;16.88;;
44480;SDS011;30184;42.018;23.670;2023-05-07T06:01:43;35.70;;;20.88;;
44480;SDS011;30184;42.018;23.670;2023-05-07T06:04:13;23.33;;;13.57;;
44480;SDS011;30184;42.018;23.670;2023-05-07T06:06:43;29.60;;;17.15;;
44480;SDS011;30184;42.018;23.670;2023-05-07T06:09:12;19.92;;;10.77;;
44480;SDS011;30184;42.018;23.670;2023-05-07T06:11:44;12.98;;;8.70;;
44480;SDS011;30184;42.018;23.670;2023-05-07T06:14:13;12.35;;;8.40;;
44480;SDS011;30184;42.018;23.670;2023-05-07T06:16:44;16.70;;;9.23;;
44480;SDS011;30184;42.018;23.670;2023-05-07T06:19:14;23.85;;;15.40;;
44480;SDS011;30184;42.018;23.670;2023-05-07T06:21:45;15.77;;;8.93;;
44480;SDS011;30184;42.018;23.670;2023-05-07T06:24:16;15.55;;;9.50;;
44480;SDS011;30184;42.018;23.670;2023-05-07T06:26:45;17.17;;;11.05;;
44480;SDS011;30184;42.018;23.670;2023-05-07T06:29:15;13.63;;;8.02;;
44480;SDS011;30184;42.018;23.670;2023-05-07T06:31:46;14.98;;;9.07;;
44480;SDS011;30184;42.018;23.670;2023-05-07T06:34:17;20.52;;;8.55;;
44480;SDS011;30184;42.018;23.670;2023-05-07T06:36:46;11.05;;;7.07;;
44480;SDS011;30184;42.018;23.670;2023-05-07T06:39:25;12.65;;;6.70;;
44480;SDS011;30184;42.018;23.670;2023-05-07T06:41:54;11.63;;;5.30;;
44480;SDS011;30184;42.018;23.670;2023-05-07T06:44:27;10.75;;;6.10;;
44480;SDS011;30184;42.018;23.670;2023-05-07T06:47:09;12.70;;;6.57;;
44480;SDS011;30184;42.018;23.670;2023-05-07T06:49:40;9.70;;;5.82;;
44480;SDS011;30184;42.018;23.670;2023-05-07T06:52:10;10.18;;;6.20;;
44480;SDS011;30184;42.018;23.670;2023-05-07T06:54:40;18.30;;;7.50;;
44480;SDS011;30184;42.018;23.670;2023-05-07T06:57:10;12.43;;;7.40;;
44480;SDS011;30184;42.018;23.670;2023-05-07T06:59:39;16.42;;;8.32;;
44480;SDS011;30184;42.018;23.670;2023-05-07T07:02:10;15.38;;;7.07;;
44480;SDS011;30184;42.018;23.670;2023-05-07T07:04:39;17.00;;;7.13;;
44480;SDS011;30184;42.018;23.670;2023-05-07T07:07:10;10.52;;;6.00;;
44480;SDS011;30184;42.018;23.670;2023-05-07T07:09:41;11.10;;;5.05;;
44480;SDS011;30184;42.018;23.670;2023-05-07T07:12:12;10.80;;;5.22;;
44480;SDS011;30184;42.018;23.670;2023-05-07T07:14:42;17.80;;;5.70;;
44480;SDS011;30184;42.018;23.670;2023-05-07T07:17:14;9.40;;;4.70;;
44480;SDS011;30184;42.018;23.670;2023-05-07T07:19:43;10.15;;;4.68;;
44480;SDS011;30184;42.018;23.670;2023-05-07T07:22:12;10.02;;;5.32;;
44480;SDS011;30184;42.018;23.670;2023-05-07T07:24:42;7.88;;;4.15;;
44480;SDS011;30184;42.018;23.670;2023-05-07T07:27:14;13.38;;;4.90;;
44480;SDS011;30184;42.018;23.670;2023-05-07T07:29:44;9.25;;;5.10;;
44480;SDS011;30184;42.018;23.670;2023-05-07T07:32:14;8.15;;;4.05;;
44480;SDS011;30184;42.018;23.670;2023-05-07T07:34:44;14.77;;;9.15;;
44480;SDS011;30184;42.018;23.670;2023-05-07T07:37:14;11.80;;;5.15;;
44480;SDS011;30184;42.018;23.670;2023-05-07T07:39:43;9.98;;;5.25;;
44480;SDS011;30184;42.018;23.670;2023-05-07T07:42:12;10.27;;;4.97;;
44480;SDS011;30184;42.018;23.670;2023-05-07T07:44:42;11.05;;;5.47;;
44480;SDS011;30184;42.018;23.670;2023-05-07T07:47:15;10.32;;;3.90;;
44480;SDS011;30184;42.018;23.670;2023-05-07T07:49:48;9.05;;;5.05;;
44480;SDS011;30184;42.018;23.670;2023-05-07T07:52:18;7.43;;;4.45;;
44480;SDS011;30184;42.018;23.670;2023-05-07T07:54:47;9.23;;;4.68;;
44480;SDS011;30184;42.018;23.670;2023-05-07T07:57:16;10.88;;;5.68;;
44480;SDS011;30184;42.018;23.670;2023-05-07T07:59:47;8.50;;;4.95;;
44480;SDS011;30184;42.018;23.670;2023-05-07T08:02:17;9.23;;;6.20;;
44480;SDS011;30184;42.018;23.670;2023-05-07T08:04:48;8.35;;;5.18;;
44480;SDS011;30184;42.018;23.670;2023-05-07T08:07:18;10.55;;;4.55;;
44480;SDS011;30184;42.018;23.670;2023-05-07T08:09:50;9.98;;;4.65;;
44480;SDS011;30184;42.018;23.670;2023-05-07T08:12:22;15.85;;;5.80;;
44480;SDS011;30184;42.018;23.670;2023-05-07T08:14:51;8.02;;;4.63;;
44480;SDS011;30184;42.018;23.670;2023-05-07T08:17:23;10.32;;;4.72;;
44480;SDS011;30184;42.018;23.670;2023-05-07T08:19:52;10.38;;;5.68;;
44480;SDS011;30184;42.018;23.670;2023-05-07T08:22:22;6.63;;;4.60;;
44480;SDS011;30184;42.018;23.670;2023-05-07T08:24:51;14.73;;;5.22;;
44480;SDS011;30184;42.018;23.670;2023-05-07T08:27:21;10.18;;;4.47;;
44480;SDS011;30184;42.018;23.670;2023-05-07T08:29:50;10.93;;;4.50;;
44480;SDS011;30184;42.018;23.670;2023-05-07T08:32:22;9.20;;;4.03;;
44480;SDS011;30184;42.018;23.670;2023-05-07T08:34:53;10.55;;;6.60;;
44480;SDS011;30184;42.018;23.670;2023-05-07T08:37:22;11.95;;;5.35;;
44480;SDS011;30184;42.018;23.670;2023-05-07T08:39:51;7.82;;;3.63;;
44480;SDS011;30184;42.018;23.670;2023-05-07T08:42:23;9.35;;;3.67;;
44480;SDS011;30184;42.018;23.670;2023-05-07T08:44:53;11.63;;;4.50;;
44480;SDS011;30184;42.018;23.670;2023-05-07T08:47:29;10.27;;;4.47;;
44480;SDS011;30184;42.018;23.670;2023-05-07T08:50:03;6.85;;;3.53;;
44480;SDS011;30184;42.018;23.670;2023-05-07T08:52:35;7.85;;;2.85;;
44480;SDS011;30184;42.018;23.670;2023-05-07T08:55:05;9.00;;;4.35;;
44480;SDS011;30184;42.018;23.670;2023-05-07T08:57:36;10.43;;;5.45;;
44480;SDS011;30184;42.018;23.670;2023-05-07T09:00:06;7.70;;;3.50;;
44480;SDS011;30184;42.018;23.670;2023-05-07T09:02:39;8.07;;;4.00;;
44480;SDS011;30184;42.018;23.670;2023-05-07T09:05:10;11.30;;;5.43;;
44480;SDS011;30184;42.018;23.670;2023-05-07T09:07:40;10.15;;;4.82;;
44480;SDS011;30184;42.018;23.670;2023-05-07T09:10:10;6.68;;;3.47;;
44480;SDS011;30184;42.018;23.670;2023-05-07T09:12:42;6.95;;;3.20;;
44480;SDS011;30184;42.018;23.670;2023-05-07T09:15:13;8.27;;;3.28;;
44480;SDS011;30184;42.018;23.670;2023-05-07T09:17:45;10.63;;;3.20;;
44480;SDS011;30184;42.018;23.670;2023-05-07T09:20:14;3.83;;;2.25;;
44480;SDS011;30184;42.018;23.670;2023-05-07T09:22:45;5.68;;;2.67;;
44480;SDS011;30184;42.018;23.670;2023-05-07T09:25:17;5.40;;;2.72;;
44480;SDS011;30184;42.018;23.670;2023-05-07T09:27:58;8.98;;;2.85;;
44480;SDS011;30184;42.018;23.670;2023-05-07T09:30:28;3.95;;;2.58;;
44480;SDS011;30184;42.018;23.670;2023-05-07T09:33:02;6.68;;;2.67;;
44480;SDS011;30184;42.018;23.670;2023-05-07T09:35:37;6.72;;;2.78;;
44480;SDS011;30184;42.018;23.670;2023-05-07T09:38:11;4.85;;;2.92;;
44480;SDS011;30184;42.018;23.670;2023-05-07T09:40:42;5.88;;;2.88;;
44480;SDS011;30184;42.018;23.670;2023-05-07T09:43:14;6.30;;;2.60;;
44480;SDS011;30184;42.018;23.670;2023-05-07T09:45:55;7.50;;;3.15;;
44480;SDS011;30184;42.018;23.670;2023-05-07T09:48:28;7.93;;;3.10;;
44480;SDS011;30184;42.018;23.670;2023-05-07T09:51:00;3.90;;;2.55;;
44480;SDS011;30184;42.018;23.670;2023-05-07T09:53:34;6.50;;;2.90;;
44480;SDS011;30184;42.018;23.670;2023-05-07T09:56:05;5.88;;;3.33;;
44480;SDS011;30184;42.018;23.670;2023-05-07T09:58:36;4.50;;;2.53;;
44480;SDS011;30184;42.018;23.670;2023-05-07T10:01:07;6.60;;;2.80;;
44480;SDS011;30184;42.018;23.670;2023-05-07T10:03:42;13.60;;;2.58;;
44480;SDS011;30184;42.018;23.670;2023-05-07T10:06:14;5.90;;;2.38;;
44480;SDS011;30184;42.018;23.670;2023-05-07T10:08:44;5.25;;;3.03;;
44480;SDS011;30184;42.018;23.670;2023-05-07T10:11:14;7.75;;;2.70;;
44480;SDS011;30184;42.018;23.670;2023-05-07T10:13:45;8.57;;;3.72;;
44480;SDS011;30184;42.018;23.670;2023-05-07T10:16:17;4.80;;;2.83;;
44480;SDS011;30184;42.018;23.670;2023-05-07T10:18:50;7.03;;;3.00;;
44480;SDS011;30184;42.018;23.670;2023-05-07T10:21:23;7.13;;;3.00;;
44480;SDS011;30184;42.018;23.670;2023-05-07T10:23:58;5.07;;;3.35;;
44480;SDS011;30184;42.018;23.670;2023-05-07T10:29:05;5.20;;;2.50;;
44480;SDS011;30184;42.018;23.670;2023-05-07T10:31:54;5.32;;;2.85;;
44480;SDS011;30184;42.018;23.670;2023-05-07T10:34:32;6.95;;;3.03;;
44480;SDS011;30184;42.018;23.670;2023-05-07T10:39:35;5.43;;;2.63;;
44480;SDS011;30184;42.018;23.670;2023-05-07T10:42:09;4.90;;;2.80;;
44480;SDS011;30184;42.018;23.670;2023-05-07T10:44:42;4.65;;;2.63;;
44480;SDS011;30184;42.018;23.670;2023-05-07T10:47:20;7.63;;;3.05;;
44480;SDS011;30184;42.018;23.670;2023-05-07T11:02:22;3.47;;;2.28;;
44480;SDS011;30184;42.018;23.670;2023-05-07T11:08:02;6.22;;;3.50;;
44480;SDS011;30184;42.018;23.670;2023-05-07T11:10:48;14.27;;;6.43;;
44480;SDS011;30184;42.018;23.670;2023-05-07T11:13:43;9.65;;;4.72;;
44480;SDS011;30184;42.018;23.670;2023-05-07T11:16:29;8.85;;;4.10;;
44480;SDS011;30184;42.018;23.670;2023-05-07T11:19:15;6.78;;;3.75;;
44480;SDS011;30184;42.018;23.670;2023-05-07T11:21:49;5.18;;;2.67;;
44480;SDS011;30184;42.018;23.670;2023-05-07T11:24:40;4.93;;;2.67;;
44480;SDS011;30184;42.018;23.670;2023-05-07T11:27:12;7.20;;;3.00;;
44480;SDS011;30184;42.018;23.670;2023-05-07T11:29:44;5.10;;;2.70;;
44480;SDS011;30184;42.018;23.670;2023-05-07T11:32:15;8.27;;;2.83;;
44480;SDS011;30184;42.018;23.670;2023-05-07T11:34:53;7.95;;;2.50;;
44480;SDS011;30184;42.018;23.670;2023-05-07T11:37:25;5.97;;;2.50;;
44480;SDS011;30184;42.018;23.670;2023-05-07T11:40:06;3.78;;;2.33;;
44480;SDS011;30184;42.018;23.670;2023-05-07T11:42:38;7.13;;;2.97;;
44480;SDS011;30184;42.018;23.670;2023-05-07T11:45:10;5.88;;;2.55;;
44480;SDS011;30184;42.018;23.670;2023-05-07T11:47:41;8.07;;;3.08;;
44480;SDS011;30184;42.018;23.670;2023-05-07T11:50:11;5.70;;;3.42;;
44480;SDS011;30184;42.018;23.670;2023-05-07T11:52:40;5.88;;;3.72;;
44480;SDS011;30184;42.018;23.670;2023-05-07T11:55:21;4.18;;;3.03;;
44480;SDS011;30184;42.018;23.670;2023-05-07T11:57:53;4.60;;;3.50;;
44480;SDS011;30184;42.018;23.670;2023-05-07T12:00:22;8.57;;;3.78;;
44480;SDS011;30184;42.018;23.670;2023-05-07T12:02:52;6.28;;;3.45;;
44480;SDS011;30184;42.018;23.670;2023-05-07T12:05:21;10.38;;;3.10;;
44480;SDS011;30184;42.018;23.670;2023-05-07T12:07:55;5.78;;;3.22;;
44480;SDS011;30184;42.018;23.670;2023-05-07T12:10:26;9.57;;;3.75;;
44480;SDS011;30184;42.018;23.670;2023-05-07T12:12:56;6.93;;;3.60;;
44480;SDS011;30184;42.018;23.670;2023-05-07T12:15:25;5.93;;;3.40;;
44480;SDS011;30184;42.018;23.670;2023-05-07T12:17:56;10.65;;;4.00;;
44480;SDS011;30184;42.018;23.670;2023-05-07T12:20:26;5.90;;;3.03;;
44480;SDS011;30184;42.018;23.670;2023-05-07T12:22:56;4.53;;;2.58;;
44480;SDS011;30184;42.018;23.670;2023-05-07T12:25:27;6.95;;;3.30;;
44480;SDS011;30184;42.018;23.670;2023-05-07T12:28:00;6.38;;;3.25;;
44480;SDS011;30184;42.018;23.670;2023-05-07T12:30:30;9.63;;;4.47;;
44480;SDS011;30184;42.018;23.670;2023-05-07T12:33:00;4.80;;;3.28;;
44480;SDS011;30184;42.018;23.670;2023-05-07T12:35:30;5.28;;;3.10;;
44480;SDS011;30184;42.018;23.670;2023-05-07T12:37:59;4.20;;;2.90;;
44480;SDS011;30184;42.018;23.670;2023-05-07T12:40:39;9.15;;;3.13;;
44480;SDS011;30184;42.018;23.670;2023-05-07T12:43:14;10.00;;;4.00;;
44480;SDS011;30184;42.018;23.670;2023-05-07T12:45:46;4.63;;;2.55;;
44480;SDS011;30184;42.018;23.670;2023-05-07T12:48:17;5.63;;;3.65;;
44480;SDS011;30184;42.018;23.670;2023-05-07T12:50:49;6.05;;;3.40;;
44480;SDS011;30184;42.018;23.670;2023-05-07T12:53:26;5.75;;;2.88;;
44480;SDS011;30184;42.018;23.670;2023-05-07T12:55:58;6.20;;;3.15;;
44480;SDS011;30184;42.018;23.670;2023-05-07T12:58:28;8.00;;;4.43;;
44480;SDS011;30184;42.018;23.670;2023-05-07T13:01:00;6.50;;;2.78;;
44480;SDS011;30184;42.018;23.670;2023-05-07T13:03:33;5.63;;;3.00;;
44480;SDS011;30184;42.018;23.670;2023-05-07T13:06:04;10.07;;;4.00;;
44480;SDS011;30184;42.018;23.670;2023-05-07T13:08:35;6.75;;;2.90;;
44480;SDS011;30184;42.018;23.670;2023-05-07T13:11:09;7.30;;;3.78;;
44480;SDS011;30184;42.018;23.670;2023-05-07T13:13:40;11.40;;;5.55;;
44480;SDS011;30184;42.018;23.670;2023-05-07T13:16:10;4.20;;;2.83;;
44480;SDS011;30184;42.018;23.670;2023-05-07T13:18:40;11.23;;;6.50;;
44480;SDS011;30184;42.018;23.670;2023-05-07T13:21:11;6.60;;;3.20;;
44480;SDS011;30184;42.018;23.670;2023-05-07T13:23:42;6.93;;;2.90;;
44480;SDS011;30184;42.018;23.670;2023-05-07T13:26:13;7.40;;;3.70;;
44480;SDS011;30184;42.018;23.670;2023-05-07T13:28:51;13.32;;;5.18;;
44480;SDS011;30184;42.018;23.670;2023-05-07T13:31:20;12.43;;;4.88;;
44480;SDS011;30184;42.018;23.670;2023-05-07T13:33:50;6.13;;;3.25;;
44480;SDS011;30184;42.018;23.670;2023-05-07T13:36:20;5.05;;;3.20;;
44480;SDS011;30184;42.018;23.670;2023-05-07T13:38:49;7.95;;;2.90;;
44480;SDS011;30184;42.018;23.670;2023-05-07T13:41:21;5.53;;;2.72;;
44480;SDS011;30184;42.018;23.670;2023-05-07T13:43:51;5.55;;;3.15;;
44480;SDS011;30184;42.018;23.670;2023-05-07T13:46:20;5.03;;;3.53;;
44480;SDS011;30184;42.018;23.670;2023-05-07T13:48:50;13.07;;;5.13;;
44480;SDS011;30184;42.018;23.670;2023-05-07T13:51:19;7.25;;;5.20;;
44480;SDS011;30184;42.018;23.670;2023-05-07T13:53:49;8.68;;;3.15;;
44480;SDS011;30184;42.018;23.670;2023-05-07T13:56:21;7.10;;;3.25;;
44480;SDS011;30184;42.018;23.670;2023-05-07T13:58:50;7.82;;;3.20;;
44480;SDS011;30184;42.018;23.670;2023-05-07T14:01:25;5.35;;;3.80;;
44480;SDS011;30184;42.018;23.670;2023-05-07T14:03:55;12.27;;;5.13;;
44480;SDS011;30184;42.018;23.670;2023-05-07T14:06:27;8.70;;;4.10;;
44480;SDS011;30184;42.018;23.670;2023-05-07T14:08:56;15.25;;;10.55;;
44480;SDS011;30184;42.018;23.670;2023-05-07T14:11:29;8.52;;;6.38;;
44480;SDS011;30184;42.018;23.670;2023-05-07T14:14:00;9.40;;;4.07;;
44480;SDS011;30184;42.018;23.670;2023-05-07T14:16:29;6.97;;;3.67;;
44480;SDS011;30184;42.018;23.670;2023-05-07T14:18:59;7.82;;;3.42;;
44480;SDS011;30184;42.018;23.670;2023-05-07T14:21:29;10.60;;;4.80;;
44480;SDS011;30184;42.018;23.670;2023-05-07T14:24:00;10.63;;;5.30;;
44480;SDS011;30184;42.018;23.670;2023-05-07T14:26:32;17.50;;;4.30;;
44480;SDS011;30184;42.018;23.670;2023-05-07T14:29:02;7.03;;;4.40;;
44480;SDS011;30184;42.018;23.670;2023-05-07T14:31:31;7.03;;;4.47;;
44480;SDS011;30184;42.018;23.670;2023-05-07T14:34:01;5.80;;;3.13;;
44480;SDS011;30184;42.018;23.670;2023-05-07T14:36:31;5.07;;;2.85;;
44480;SDS011;30184;42.018;23.670;2023-05-07T14:39:01;5.18;;;3.28;;
44480;SDS011;30184;42.018;23.670;2023-05-07T14:41:33;4.95;;;3.10;;
44480;SDS011;30184;42.018;23.670;2023-05-07T14:44:03;8.32;;;4.45;;
44480;SDS011;30184;42.018;23.670;2023-05-07T14:46:33;10.10;;;5.32;;
44480;SDS011;30184;42.018;23.670;2023-05-07T14:49:03;23.60;;;11.30;;
44480;SDS011;30184;42.018;23.670;2023-05-07T14:51:33;39.65;;;23.35;;
44480;SDS011;30184;42.018;23.670;2023-05-07T14:54:03;13.15;;;7.93;;
44480;SDS011;30184;42.018;23.670;2023-05-07T14:56:33;8.95;;;6.07;;
44480;SDS011;30184;42.018;23.670;2023-05-07T14:59:04;8.10;;;4.80;;
44480;SDS011;30184;42.018;23.670;2023-05-07T15:01:34;17.85;;;7.68;;
44480;SDS011;30184;42.018;23.670;2023-05-07T15:04:04;14.20;;;5.30;;
44480;SDS011;30184;42.018;23.670;2023-05-07T15:06:34;8.20;;;4.93;;